sensor_id;sensor_type;location;lat;lon;timestamp;P1;durP1;ratioP1;P2;durP2;ratioP2
32393;SDS011;18853;45.426;9.206;2023-07-13T00:01:45;5.20;;;2.13;;
32393;SDS011;18853;45.426;9.206;2023-07-13T00:04:14;6.35;;;2.10;;
32393;SDS011;18853;45.426;9.206;2023-07-13T00:06:42;5.32;;;2.22;;
32393;SDS011;18853;45.426;9.206;2023-07-13T00:09:09;4.32;;;2.28;;
32393;SDS011;18853;45.426;9.206;2023-07-13T00:11:37;6.60;;;2.30;;
32393;SDS011;18853;45.426;9.206;2023-07-13T00:14:03;5.75;;;1.98;;
32393;SDS011;18853;45.426;9.206;2023-07-13T00:16:28;6.25;;;2.13;;
32393;SDS011;18853;45.426;9.206;2023-07-13T00:18:54;5.05;;;2.22;;
32393;SDS011;18853;45.426;9.206;2023-07-13T00:21:20;8.05;;;2.80;;
32393;SDS011;18853;45.426;9.206;2023-07-13T00:23:45;5.40;;;2.20;;
32393;SDS011;18853;45.426;9.206;2023-07-13T00:26:11;4.63;;;2.20;;
32393;SDS011;18853;45.426;9.206;2023-07-13T00:28:37;5.18;;;2.05;;
32393;SDS011;18853;45.426;9.206;2023-07-13T00:31:04;4.38;;;2.20;;
32393;SDS011;18853;45.426;9.206;2023-07-13T00:33:30;4.85;;;2.03;;
32393;SDS011;18853;45.426;9.206;2023-07-13T00:35:56;5.13;;;2.20;;
32393;SDS011;18853;45.426;9.206;2023-07-13T00:38:22;4.15;;;1.80;;
32393;SDS011;18853;45.426;9.206;2023-07-13T00:40:48;3.55;;;1.98;;
32393;SDS011;18853;45.426;9.206;2023-07-13T00:43:18;5.30;;;2.10;;
32393;SDS011;18853;45.426;9.206;2023-07-13T00:48:24;4.65;;;2.20;;
32393;SDS011;18853;45.426;9.206;2023-07-13T00:50:54;6.80;;;2.35;;
32393;SDS011;18853;45.426;9.206;2023-07-13T00:53:22;6.55;;;2.38;;
32393;SDS011;18853;45.426;9.206;2023-07-13T00:55:51;5.13;;;2.42;;
32393;SDS011;18853;45.426;9.206;2023-07-13T00:58:19;4.97;;;2.03;;
32393;SDS011;18853;45.426;9.206;2023-07-13T01:00:45;4.53;;;1.88;;
32393;SDS011;18853;45.426;9.206;2023-07-13T01:03:13;4.20;;;1.80;;
32393;SDS011;18853;45.426;9.206;2023-07-13T01:05:40;5.05;;;1.80;;
32393;SDS011;18853;45.426;9.206;2023-07-13T01:08:06;6.00;;;2.45;;
32393;SDS011;18853;45.426;9.206;2023-07-13T01:10:33;3.80;;;1.98;;
32393;SDS011;18853;45.426;9.206;2023-07-13T01:13:08;6.95;;;2.50;;
32393;SDS011;18853;45.426;9.206;2023-07-13T01:15:39;4.65;;;2.35;;
32393;SDS011;18853;45.426;9.206;2023-07-13T01:18:10;5.68;;;2.28;;
32393;SDS011;18853;45.426;9.206;2023-07-13T01:20:58;7.95;;;2.50;;
32393;SDS011;18853;45.426;9.206;2023-07-13T01:23:26;4.78;;;2.25;;
32393;SDS011;18853;45.426;9.206;2023-07-13T01:25:53;3.95;;;2.08;;
32393;SDS011;18853;45.426;9.206;2023-07-13T01:28:20;6.30;;;2.42;;
32393;SDS011;18853;45.426;9.206;2023-07-13T01:30:47;4.80;;;2.40;;
32393;SDS011;18853;45.426;9.206;2023-07-13T01:33:14;4.43;;;2.17;;
32393;SDS011;18853;45.426;9.206;2023-07-13T01:35:42;4.65;;;2.33;;
32393;SDS011;18853;45.426;9.206;2023-07-13T01:38:09;6.13;;;2.30;;
32393;SDS011;18853;45.426;9.206;2023-07-13T01:40:36;4.68;;;2.40;;
32393;SDS011;18853;45.426;9.206;2023-07-13T01:43:03;5.53;;;1.90;;
32393;SDS011;18853;45.426;9.206;2023-07-13T01:45:28;7.70;;;2.22;;
32393;SDS011;18853;45.426;9.206;2023-07-13T01:47:54;6.75;;;2.03;;
32393;SDS011;18853;45.426;9.206;2023-07-13T01:50:20;6.03;;;2.50;;
32393;SDS011;18853;45.426;9.206;2023-07-13T01:52:45;5.47;;;2.35;;
32393;SDS011;18853;45.426;9.206;2023-07-13T01:55:11;7.13;;;2.40;;
32393;SDS011;18853;45.426;9.206;2023-07-13T01:57:37;6.00;;;2.53;;
32393;SDS011;18853;45.426;9.206;2023-07-13T02:00:03;8.00;;;2.25;;
32393;SDS011;18853;45.426;9.206;2023-07-13T02:02:31;3.25;;;1.55;;
32393;SDS011;18853;45.426;9.206;2023-07-13T02:04:56;4.75;;;2.25;;
32393;SDS011;18853;45.426;9.206;2023-07-13T02:07:22;5.30;;;2.25;;
32393;SDS011;18853;45.426;9.206;2023-07-13T02:09:48;4.70;;;2.00;;
32393;SDS011;18853;45.426;9.206;2023-07-13T02:12:13;6.75;;;3.00;;
32393;SDS011;18853;45.426;9.206;2023-07-13T02:14:39;4.22;;;2.40;;
32393;SDS011;18853;45.426;9.206;2023-07-13T02:17:05;5.03;;;2.15;;
32393;SDS011;18853;45.426;9.206;2023-07-13T02:19:31;4.97;;;2.08;;
32393;SDS011;18853;45.426;9.206;2023-07-13T02:21:57;6.97;;;2.58;;
32393;SDS011;18853;45.426;9.206;2023-07-13T02:24:22;6.07;;;2.38;;
32393;SDS011;18853;45.426;9.206;2023-07-13T02:26:48;8.05;;;2.50;;
32393;SDS011;18853;45.426;9.206;2023-07-13T02:29:14;4.95;;;2.60;;
32393;SDS011;18853;45.426;9.206;2023-07-13T02:31:40;5.72;;;2.20;;
32393;SDS011;18853;45.426;9.206;2023-07-13T02:34:05;4.88;;;2.50;;
32393;SDS011;18853;45.426;9.206;2023-07-13T02:36:31;4.40;;;2.20;;
32393;SDS011;18853;45.426;9.206;2023-07-13T02:38:59;6.20;;;2.03;;
32393;SDS011;18853;45.426;9.206;2023-07-13T02:41:26;6.85;;;3.50;;
32393;SDS011;18853;45.426;9.206;2023-07-13T02:43:52;7.22;;;2.60;;
32393;SDS011;18853;45.426;9.206;2023-07-13T02:46:18;5.18;;;2.63;;
32393;SDS011;18853;45.426;9.206;2023-07-13T02:48:44;6.05;;;2.72;;
32393;SDS011;18853;45.426;9.206;2023-07-13T02:51:10;6.38;;;2.47;;
32393;SDS011;18853;45.426;9.206;2023-07-13T02:53:36;6.63;;;2.70;;
32393;SDS011;18853;45.426;9.206;2023-07-13T02:56:02;5.78;;;2.60;;
32393;SDS011;18853;45.426;9.206;2023-07-13T02:58:29;5.38;;;2.60;;
32393;SDS011;18853;45.426;9.206;2023-07-13T03:00:55;6.28;;;2.70;;
32393;SDS011;18853;45.426;9.206;2023-07-13T03:03:22;4.30;;;2.22;;
32393;SDS011;18853;45.426;9.206;2023-07-13T03:05:57;4.95;;;2.38;;
32393;SDS011;18853;45.426;9.206;2023-07-13T03:08:28;5.70;;;2.47;;
32393;SDS011;18853;45.426;9.206;2023-07-13T03:11:05;4.28;;;2.15;;
32393;SDS011;18853;45.426;9.206;2023-07-13T03:13:33;5.53;;;2.42;;
32393;SDS011;18853;45.426;9.206;2023-07-13T03:15:59;6.22;;;2.70;;
32393;SDS011;18853;45.426;9.206;2023-07-13T03:18:26;5.05;;;2.10;;
32393;SDS011;18853;45.426;9.206;2023-07-13T03:20:52;6.63;;;2.47;;
32393;SDS011;18853;45.426;9.206;2023-07-13T03:23:19;5.53;;;2.30;;
32393;SDS011;18853;45.426;9.206;2023-07-13T03:25:45;6.85;;;2.47;;
32393;SDS011;18853;45.426;9.206;2023-07-13T03:28:11;6.55;;;2.15;;
32393;SDS011;18853;45.426;9.206;2023-07-13T03:30:37;3.97;;;2.15;;
32393;SDS011;18853;45.426;9.206;2023-07-13T03:33:03;5.53;;;2.60;;
32393;SDS011;18853;45.426;9.206;2023-07-13T03:35:29;5.95;;;2.80;;
32393;SDS011;18853;45.426;9.206;2023-07-13T03:37:57;9.10;;;3.08;;
32393;SDS011;18853;45.426;9.206;2023-07-13T03:40:24;6.40;;;3.28;;
32393;SDS011;18853;45.426;9.206;2023-07-13T03:42:51;6.25;;;2.75;;
32393;SDS011;18853;45.426;9.206;2023-07-13T03:45:17;5.57;;;2.70;;
32393;SDS011;18853;45.426;9.206;2023-07-13T03:47:43;6.35;;;2.80;;
32393;SDS011;18853;45.426;9.206;2023-07-13T03:50:08;6.05;;;2.88;;
32393;SDS011;18853;45.426;9.206;2023-07-13T03:52:34;4.70;;;2.50;;
32393;SDS011;18853;45.426;9.206;2023-07-13T03:55:00;8.57;;;3.08;;
32393;SDS011;18853;45.426;9.206;2023-07-13T03:57:26;5.20;;;2.17;;
32393;SDS011;18853;45.426;9.206;2023-07-13T03:59:51;5.38;;;2.60;;
32393;SDS011;18853;45.426;9.206;2023-07-13T04:02:18;5.13;;;2.38;;
32393;SDS011;18853;45.426;9.206;2023-07-13T04:04:44;6.95;;;2.67;;
32393;SDS011;18853;45.426;9.206;2023-07-13T04:07:09;6.20;;;2.92;;
32393;SDS011;18853;45.426;9.206;2023-07-13T04:09:35;6.35;;;2.92;;
32393;SDS011;18853;45.426;9.206;2023-07-13T04:12:01;4.82;;;2.50;;
32393;SDS011;18853;45.426;9.206;2023-07-13T04:14:27;5.97;;;2.67;;
32393;SDS011;18853;45.426;9.206;2023-07-13T04:16:53;7.07;;;2.95;;
32393;SDS011;18853;45.426;9.206;2023-07-13T04:19:19;4.18;;;2.30;;
32393;SDS011;18853;45.426;9.206;2023-07-13T04:21:45;4.50;;;2.42;;
32393;SDS011;18853;45.426;9.206;2023-07-13T04:24:11;7.55;;;3.05;;
32393;SDS011;18853;45.426;9.206;2023-07-13T04:26:37;6.55;;;2.78;;
32393;SDS011;18853;45.426;9.206;2023-07-13T04:29:03;6.70;;;2.92;;
32393;SDS011;18853;45.426;9.206;2023-07-13T04:31:29;6.30;;;2.90;;
32393;SDS011;18853;45.426;9.206;2023-07-13T04:33:55;11.82;;;3.03;;
32393;SDS011;18853;45.426;9.206;2023-07-13T04:36:21;5.85;;;3.10;;
32393;SDS011;18853;45.426;9.206;2023-07-13T04:38:47;7.18;;;3.10;;
32393;SDS011;18853;45.426;9.206;2023-07-13T04:41:14;6.53;;;3.13;;
32393;SDS011;18853;45.426;9.206;2023-07-13T04:43:40;4.93;;;2.70;;
32393;SDS011;18853;45.426;9.206;2023-07-13T04:46:07;6.72;;;2.63;;
32393;SDS011;18853;45.426;9.206;2023-07-13T04:48:36;5.85;;;3.15;;
32393;SDS011;18853;45.426;9.206;2023-07-13T04:51:02;9.18;;;3.10;;
32393;SDS011;18853;45.426;9.206;2023-07-13T04:53:28;7.70;;;3.15;;
32393;SDS011;18853;45.426;9.206;2023-07-13T04:55:55;8.20;;;3.67;;
32393;SDS011;18853;45.426;9.206;2023-07-13T04:58:21;7.10;;;3.28;;
32393;SDS011;18853;45.426;9.206;2023-07-13T05:00:50;5.63;;;2.75;;
32393;SDS011;18853;45.426;9.206;2023-07-13T05:03:16;7.45;;;3.35;;
32393;SDS011;18853;45.426;9.206;2023-07-13T05:05:42;5.65;;;2.47;;
32393;SDS011;18853;45.426;9.206;2023-07-13T05:08:08;6.28;;;3.28;;
32393;SDS011;18853;45.426;9.206;2023-07-13T05:10:34;7.97;;;3.38;;
32393;SDS011;18853;45.426;9.206;2023-07-13T05:13:00;6.65;;;3.10;;
32393;SDS011;18853;45.426;9.206;2023-07-13T05:15:26;8.00;;;3.35;;
32393;SDS011;18853;45.426;9.206;2023-07-13T05:17:52;6.53;;;3.40;;
32393;SDS011;18853;45.426;9.206;2023-07-13T05:20:18;9.32;;;4.13;;
32393;SDS011;18853;45.426;9.206;2023-07-13T05:22:44;6.85;;;4.35;;
32393;SDS011;18853;45.426;9.206;2023-07-13T05:25:13;10.52;;;4.35;;
32393;SDS011;18853;45.426;9.206;2023-07-13T05:27:40;12.73;;;8.32;;
32393;SDS011;18853;45.426;9.206;2023-07-13T05:30:05;52.38;;;39.28;;
32393;SDS011;18853;45.426;9.206;2023-07-13T05:32:32;131.32;;;106.85;;
32393;SDS011;18853;45.426;9.206;2023-07-13T05:34:58;79.15;;;62.15;;
32393;SDS011;18853;45.426;9.206;2023-07-13T05:37:23;17.40;;;13.52;;
32393;SDS011;18853;45.426;9.206;2023-07-13T05:39:49;11.43;;;8.07;;
32393;SDS011;18853;45.426;9.206;2023-07-13T05:42:15;12.27;;;8.23;;
32393;SDS011;18853;45.426;9.206;2023-07-13T05:44:40;11.57;;;7.05;;
32393;SDS011;18853;45.426;9.206;2023-07-13T05:47:06;13.32;;;6.93;;
32393;SDS011;18853;45.426;9.206;2023-07-13T05:49:32;16.25;;;9.50;;
32393;SDS011;18853;45.426;9.206;2023-07-13T05:51:58;13.57;;;8.80;;
32393;SDS011;18853;45.426;9.206;2023-07-13T05:54:23;15.45;;;9.27;;
32393;SDS011;18853;45.426;9.206;2023-07-13T05:56:49;15.05;;;8.07;;
32393;SDS011;18853;45.426;9.206;2023-07-13T05:59:15;12.18;;;8.02;;
32393;SDS011;18853;45.426;9.206;2023-07-13T06:01:40;13.48;;;8.48;;
32393;SDS011;18853;45.426;9.206;2023-07-13T06:04:06;12.88;;;7.50;;
32393;SDS011;18853;45.426;9.206;2023-07-13T06:06:32;14.35;;;9.18;;
32393;SDS011;18853;45.426;9.206;2023-07-13T06:08:58;12.82;;;7.13;;
32393;SDS011;18853;45.426;9.206;2023-07-13T06:11:24;14.82;;;7.32;;
32393;SDS011;18853;45.426;9.206;2023-07-13T06:13:51;12.50;;;6.65;;
32393;SDS011;18853;45.426;9.206;2023-07-13T06:16:16;13.30;;;6.47;;
32393;SDS011;18853;45.426;9.206;2023-07-13T06:18:42;14.23;;;7.35;;
32393;SDS011;18853;45.426;9.206;2023-07-13T06:21:12;11.55;;;6.53;;
32393;SDS011;18853;45.426;9.206;2023-07-13T06:23:40;11.75;;;5.80;;
32393;SDS011;18853;45.426;9.206;2023-07-13T06:26:06;11.95;;;5.82;;
32393;SDS011;18853;45.426;9.206;2023-07-13T06:28:35;10.15;;;5.30;;
32393;SDS011;18853;45.426;9.206;2023-07-13T06:31:02;10.95;;;4.80;;
32393;SDS011;18853;45.426;9.206;2023-07-13T06:33:34;7.65;;;4.50;;
32393;SDS011;18853;45.426;9.206;2023-07-13T06:36:01;8.35;;;4.40;;
32393;SDS011;18853;45.426;9.206;2023-07-13T06:38:27;6.88;;;4.57;;
32393;SDS011;18853;45.426;9.206;2023-07-13T06:40:53;8.63;;;4.10;;
32393;SDS011;18853;45.426;9.206;2023-07-13T06:43:19;6.25;;;3.45;;
32393;SDS011;18853;45.426;9.206;2023-07-13T06:45:46;13.65;;;5.20;;
32393;SDS011;18853;45.426;9.206;2023-07-13T06:48:18;8.48;;;4.00;;
32393;SDS011;18853;45.426;9.206;2023-07-13T06:50:44;8.40;;;4.72;;
32393;SDS011;18853;45.426;9.206;2023-07-13T06:53:12;29.33;;;22.38;;
32393;SDS011;18853;45.426;9.206;2023-07-13T06:55:39;24.10;;;17.98;;
32393;SDS011;18853;45.426;9.206;2023-07-13T06:58:05;24.58;;;18.50;;
32393;SDS011;18853;45.426;9.206;2023-07-13T07:00:32;14.30;;;11.05;;
32393;SDS011;18853;45.426;9.206;2023-07-13T07:02:57;13.13;;;8.05;;
32393;SDS011;18853;45.426;9.206;2023-07-13T07:05:23;9.43;;;4.28;;
32393;SDS011;18853;45.426;9.206;2023-07-13T07:07:49;8.43;;;5.60;;
32393;SDS011;18853;45.426;9.206;2023-07-13T07:10:16;7.40;;;4.20;;
32393;SDS011;18853;45.426;9.206;2023-07-13T07:12:42;8.60;;;3.95;;
32393;SDS011;18853;45.426;9.206;2023-07-13T07:15:08;5.88;;;3.22;;
32393;SDS011;18853;45.426;9.206;2023-07-13T07:17:34;7.32;;;3.15;;
32393;SDS011;18853;45.426;9.206;2023-07-13T07:20:00;5.65;;;2.33;;
32393;SDS011;18853;45.426;9.206;2023-07-13T07:22:26;5.32;;;2.60;;
32393;SDS011;18853;45.426;9.206;2023-07-13T07:24:53;7.03;;;2.95;;
32393;SDS011;18853;45.426;9.206;2023-07-13T07:27:19;6.43;;;2.17;;
32393;SDS011;18853;45.426;9.206;2023-07-13T07:29:45;6.65;;;2.53;;
32393;SDS011;18853;45.426;9.206;2023-07-13T07:32:10;5.13;;;2.47;;
32393;SDS011;18853;45.426;9.206;2023-07-13T07:34:36;4.97;;;2.30;;
32393;SDS011;18853;45.426;9.206;2023-07-13T07:37:02;5.15;;;2.17;;
32393;SDS011;18853;45.426;9.206;2023-07-13T07:39:28;5.00;;;2.20;;
32393;SDS011;18853;45.426;9.206;2023-07-13T07:41:54;7.70;;;2.42;;
32393;SDS011;18853;45.426;9.206;2023-07-13T07:44:20;6.68;;;2.65;;
32393;SDS011;18853;45.426;9.206;2023-07-13T07:46:46;6.68;;;2.50;;
32393;SDS011;18853;45.426;9.206;2023-07-13T07:49:11;4.55;;;2.30;;
32393;SDS011;18853;45.426;9.206;2023-07-13T07:51:37;6.93;;;2.58;;
32393;SDS011;18853;45.426;9.206;2023-07-13T07:54:04;7.65;;;2.50;;
32393;SDS011;18853;45.426;9.206;2023-07-13T07:56:30;6.97;;;2.10;;
32393;SDS011;18853;45.426;9.206;2023-07-13T07:58:56;5.90;;;2.58;;
32393;SDS011;18853;45.426;9.206;2023-07-13T08:01:22;4.85;;;2.60;;
32393;SDS011;18853;45.426;9.206;2023-07-13T08:03:48;6.00;;;2.40;;
32393;SDS011;18853;45.426;9.206;2023-07-13T08:06:13;6.90;;;2.42;;
32393;SDS011;18853;45.426;9.206;2023-07-13T08:08:39;6.00;;;2.25;;
32393;SDS011;18853;45.426;9.206;2023-07-13T08:11:06;6.95;;;2.60;;
32393;SDS011;18853;45.426;9.206;2023-07-13T08:13:33;4.60;;;2.38;;
32393;SDS011;18853;45.426;9.206;2023-07-13T08:16:00;6.13;;;2.80;;
32393;SDS011;18853;45.426;9.206;2023-07-13T08:18:26;8.13;;;3.58;;
32393;SDS011;18853;45.426;9.206;2023-07-13T08:20:55;5.97;;;2.70;;
32393;SDS011;18853;45.426;9.206;2023-07-13T08:23:24;6.07;;;2.95;;
32393;SDS011;18853;45.426;9.206;2023-07-13T08:25:51;4.63;;;2.45;;
32393;SDS011;18853;45.426;9.206;2023-07-13T08:28:18;7.25;;;2.70;;
32393;SDS011;18853;45.426;9.206;2023-07-13T08:30:45;10.43;;;3.92;;
32393;SDS011;18853;45.426;9.206;2023-07-13T08:33:14;8.05;;;5.10;;
32393;SDS011;18853;45.426;9.206;2023-07-13T08:35:47;8.32;;;4.00;;
32393;SDS011;18853;45.426;9.206;2023-07-13T08:38:13;8.43;;;3.53;;
32393;SDS011;18853;45.426;9.206;2023-07-13T08:40:39;6.53;;;3.50;;
32393;SDS011;18853;45.426;9.206;2023-07-13T08:43:08;7.05;;;3.53;;
32393;SDS011;18853;45.426;9.206;2023-07-13T08:45:46;7.55;;;3.78;;
32393;SDS011;18853;45.426;9.206;2023-07-13T08:51:09;8.18;;;3.15;;
32393;SDS011;18853;45.426;9.206;2023-07-13T08:53:37;5.00;;;3.22;;
32393;SDS011;18853;45.426;9.206;2023-07-13T08:56:14;6.72;;;3.28;;
32393;SDS011;18853;45.426;9.206;2023-07-13T08:58:48;8.57;;;4.65;;
32393;SDS011;18853;45.426;9.206;2023-07-13T09:04:11;7.70;;;2.53;;
32393;SDS011;18853;45.426;9.206;2023-07-13T09:09:15;8.07;;;3.22;;
32393;SDS011;18853;45.426;9.206;2023-07-13T09:12:17;4.70;;;2.55;;
32393;SDS011;18853;45.426;9.206;2023-07-13T09:14:58;5.38;;;2.30;;
32393;SDS011;18853;45.426;9.206;2023-07-13T09:17:30;7.18;;;2.47;;
32393;SDS011;18853;45.426;9.206;2023-07-13T09:20:10;6.13;;;2.85;;
32393;SDS011;18853;45.426;9.206;2023-07-13T09:22:39;6.63;;;3.80;;
32393;SDS011;18853;45.426;9.206;2023-07-13T09:27:35;5.88;;;2.90;;
32393;SDS011;18853;45.426;9.206;2023-07-13T09:32:33;7.63;;;3.30;;
32393;SDS011;18853;45.426;9.206;2023-07-13T09:34:59;6.90;;;2.90;;
32393;SDS011;18853;45.426;9.206;2023-07-13T09:37:30;7.85;;;3.13;;
32393;SDS011;18853;45.426;9.206;2023-07-13T09:39:58;8.40;;;4.15;;
32393;SDS011;18853;45.426;9.206;2023-07-13T09:42:26;6.05;;;2.90;;
32393;SDS011;18853;45.426;9.206;2023-07-13T09:44:54;6.65;;;3.00;;
32393;SDS011;18853;45.426;9.206;2023-07-13T09:47:23;5.97;;;2.80;;
32393;SDS011;18853;45.426;9.206;2023-07-13T09:50:05;7.90;;;3.28;;
32393;SDS011;18853;45.426;9.206;2023-07-13T09:52:43;6.10;;;2.80;;
32393;SDS011;18853;45.426;9.206;2023-07-13T09:55:32;4.63;;;2.38;;
32393;SDS011;18853;45.426;9.206;2023-07-13T09:58:21;5.97;;;3.28;;
32393;SDS011;18853;45.426;9.206;2023-07-13T10:00:56;8.40;;;4.32;;
32393;SDS011;18853;45.426;9.206;2023-07-13T10:03:30;8.98;;;3.42;;
32393;SDS011;18853;45.426;9.206;2023-07-13T10:06:16;8.18;;;3.20;;
32393;SDS011;18853;45.426;9.206;2023-07-13T10:08:46;7.32;;;3.53;;
32393;SDS011;18853;45.426;9.206;2023-07-13T10:11:21;5.75;;;2.95;;
32393;SDS011;18853;45.426;9.206;2023-07-13T10:13:56;7.43;;;2.78;;
32393;SDS011;18853;45.426;9.206;2023-07-13T10:16:25;8.15;;;5.15;;
32393;SDS011;18853;45.426;9.206;2023-07-13T10:18:57;7.95;;;5.40;;
32393;SDS011;18853;45.426;9.206;2023-07-13T10:21:27;6.97;;;3.75;;
32393;SDS011;18853;45.426;9.206;2023-07-13T10:24:10;5.28;;;3.03;;
32393;SDS011;18853;45.426;9.206;2023-07-13T10:26:46;5.13;;;2.63;;
32393;SDS011;18853;45.426;9.206;2023-07-13T10:29:35;5.15;;;2.95;;
32393;SDS011;18853;45.426;9.206;2023-07-13T10:32:07;4.60;;;2.67;;
32393;SDS011;18853;45.426;9.206;2023-07-13T10:34:36;8.38;;;3.70;;
32393;SDS011;18853;45.426;9.206;2023-07-13T10:37:02;5.47;;;2.78;;
32393;SDS011;18853;45.426;9.206;2023-07-13T10:39:33;4.78;;;2.67;;
32393;SDS011;18853;45.426;9.206;2023-07-13T10:42:01;6.20;;;2.83;;
32393;SDS011;18853;45.426;9.206;2023-07-13T10:44:30;7.65;;;4.70;;
32393;SDS011;18853;45.426;9.206;2023-07-13T10:47:08;6.85;;;3.72;;
32393;SDS011;18853;45.426;9.206;2023-07-13T10:49:40;7.65;;;3.90;;
32393;SDS011;18853;45.426;9.206;2023-07-13T10:52:28;8.32;;;3.22;;
32393;SDS011;18853;45.426;9.206;2023-07-13T10:57:59;7.47;;;3.40;;
32393;SDS011;18853;45.426;9.206;2023-07-13T11:00:42;5.70;;;3.05;;
32393;SDS011;18853;45.426;9.206;2023-07-13T11:03:12;6.30;;;3.13;;
32393;SDS011;18853;45.426;9.206;2023-07-13T11:05:40;4.90;;;3.13;;
32393;SDS011;18853;45.426;9.206;2023-07-13T11:10:52;5.68;;;2.85;;
32393;SDS011;18853;45.426;9.206;2023-07-13T11:13:36;5.03;;;2.75;;
32393;SDS011;18853;45.426;9.206;2023-07-13T11:18:52;5.90;;;2.70;;
32393;SDS011;18853;45.426;9.206;2023-07-13T11:22:01;4.85;;;2.80;;
32393;SDS011;18853;45.426;9.206;2023-07-13T11:27:35;11.23;;;4.70;;
32393;SDS011;18853;45.426;9.206;2023-07-13T11:30:35;8.95;;;4.40;;
32393;SDS011;18853;45.426;9.206;2023-07-13T11:36:03;6.97;;;3.17;;
32393;SDS011;18853;45.426;9.206;2023-07-13T11:38:38;6.45;;;3.95;;
32393;SDS011;18853;45.426;9.206;2023-07-13T11:43:37;7.90;;;4.03;;
32393;SDS011;18853;45.426;9.206;2023-07-13T11:46:13;8.80;;;3.45;;
32393;SDS011;18853;45.426;9.206;2023-07-13T11:48:39;6.90;;;3.92;;
32393;SDS011;18853;45.426;9.206;2023-07-13T11:51:06;8.38;;;3.42;;
32393;SDS011;18853;45.426;9.206;2023-07-13T11:53:43;7.82;;;3.70;;
32393;SDS011;18853;45.426;9.206;2023-07-13T11:56:11;6.72;;;3.15;;
32393;SDS011;18853;45.426;9.206;2023-07-13T11:58:37;7.65;;;3.30;;
32393;SDS011;18853;45.426;9.206;2023-07-13T12:01:03;6.35;;;3.00;;
32393;SDS011;18853;45.426;9.206;2023-07-13T12:03:29;6.32;;;2.83;;
32393;SDS011;18853;45.426;9.206;2023-07-13T12:08:25;6.18;;;3.40;;
32393;SDS011;18853;45.426;9.206;2023-07-13T12:10:58;5.45;;;2.80;;
32393;SDS011;18853;45.426;9.206;2023-07-13T12:13:29;9.20;;;2.92;;
32393;SDS011;18853;45.426;9.206;2023-07-13T12:16:01;8.52;;;3.00;;
32393;SDS011;18853;45.426;9.206;2023-07-13T12:18:30;5.13;;;2.72;;
32393;SDS011;18853;45.426;9.206;2023-07-13T12:20:58;8.20;;;4.03;;
32393;SDS011;18853;45.426;9.206;2023-07-13T12:23:30;7.65;;;3.50;;
32393;SDS011;18853;45.426;9.206;2023-07-13T12:25:58;10.07;;;4.38;;
32393;SDS011;18853;45.426;9.206;2023-07-13T12:28:36;7.55;;;4.68;;
32393;SDS011;18853;45.426;9.206;2023-07-13T12:31:04;9.00;;;4.20;;
32393;SDS011;18853;45.426;9.206;2023-07-13T12:33:32;8.68;;;3.95;;
32393;SDS011;18853;45.426;9.206;2023-07-13T12:36:02;7.82;;;3.95;;
32393;SDS011;18853;45.426;9.206;2023-07-13T12:38:30;8.48;;;3.70;;
32393;SDS011;18853;45.426;9.206;2023-07-13T12:40:57;9.23;;;3.42;;
32393;SDS011;18853;45.426;9.206;2023-07-13T12:43:23;4.75;;;2.88;;
32393;SDS011;18853;45.426;9.206;2023-07-13T12:45:54;8.63;;;3.47;;
32393;SDS011;18853;45.426;9.206;2023-07-13T12:48:21;7.80;;;3.72;;
32393;SDS011;18853;45.426;9.206;2023-07-13T12:50:47;6.60;;;3.80;;
32393;SDS011;18853;45.426;9.206;2023-07-13T12:53:17;8.45;;;3.22;;
32393;SDS011;18853;45.426;9.206;2023-07-13T12:55:50;10.23;;;3.38;;
32393;SDS011;18853;45.426;9.206;2023-07-13T12:58:26;10.48;;;3.58;;
32393;SDS011;18853;45.426;9.206;2023-07-13T13:01:01;7.22;;;3.55;;
32393;SDS011;18853;45.426;9.206;2023-07-13T13:06:02;5.78;;;3.13;;
32393;SDS011;18853;45.426;9.206;2023-07-13T13:08:36;8.18;;;2.90;;
32393;SDS011;18853;45.426;9.206;2023-07-13T13:11:02;7.28;;;3.00;;
32393;SDS011;18853;45.426;9.206;2023-07-13T13:13:28;7.82;;;3.65;;
32393;SDS011;18853;45.426;9.206;2023-07-13T13:15:54;8.30;;;4.00;;
32393;SDS011;18853;45.426;9.206;2023-07-13T13:18:21;8.50;;;3.95;;
32393;SDS011;18853;45.426;9.206;2023-07-13T13:20:49;7.18;;;3.47;;
32393;SDS011;18853;45.426;9.206;2023-07-13T13:23:16;10.32;;;4.25;;
32393;SDS011;18853;45.426;9.206;2023-07-13T13:25:44;8.07;;;3.90;;
32393;SDS011;18853;45.426;9.206;2023-07-13T13:28:18;7.10;;;4.18;;
32393;SDS011;18853;45.426;9.206;2023-07-13T13:30:46;10.07;;;4.00;;
32393;SDS011;18853;45.426;9.206;2023-07-13T13:33:20;6.82;;;4.05;;
32393;SDS011;18853;45.426;9.206;2023-07-13T13:35:47;8.20;;;4.32;;
32393;SDS011;18853;45.426;9.206;2023-07-13T13:38:13;8.43;;;4.50;;
32393;SDS011;18853;45.426;9.206;2023-07-13T13:40:42;7.05;;;4.00;;
32393;SDS011;18853;45.426;9.206;2023-07-13T13:45:51;8.20;;;4.75;;
32393;SDS011;18853;45.426;9.206;2023-07-13T13:48:18;10.93;;;4.25;;
32393;SDS011;18853;45.426;9.206;2023-07-13T13:50:47;6.97;;;4.47;;
32393;SDS011;18853;45.426;9.206;2023-07-13T13:53:14;7.82;;;4.05;;
32393;SDS011;18853;45.426;9.206;2023-07-13T13:55:40;6.90;;;4.45;;
32393;SDS011;18853;45.426;9.206;2023-07-13T13:58:06;5.85;;;3.30;;
32393;SDS011;18853;45.426;9.206;2023-07-13T14:00:33;8.50;;;4.30;;
32393;SDS011;18853;45.426;9.206;2023-07-13T14:03:00;7.07;;;4.25;;
32393;SDS011;18853;45.426;9.206;2023-07-13T14:05:26;8.15;;;4.80;;
32393;SDS011;18853;45.426;9.206;2023-07-13T14:07:52;8.50;;;4.40;;
32393;SDS011;18853;45.426;9.206;2023-07-13T14:10:19;10.02;;;4.50;;
32393;SDS011;18853;45.426;9.206;2023-07-13T14:12:52;9.07;;;4.20;;
32393;SDS011;18853;45.426;9.206;2023-07-13T14:15:22;6.97;;;3.67;;
32393;SDS011;18853;45.426;9.206;2023-07-13T14:17:51;7.45;;;3.92;;
32393;SDS011;18853;45.426;9.206;2023-07-13T14:20:18;7.72;;;3.95;;
32393;SDS011;18853;45.426;9.206;2023-07-13T14:22:45;8.13;;;4.05;;
32393;SDS011;18853;45.426;9.206;2023-07-13T14:25:12;8.23;;;3.85;;
32393;SDS011;18853;45.426;9.206;2023-07-13T14:27:38;11.18;;;4.53;;
32393;SDS011;18853;45.426;9.206;2023-07-13T14:30:12;10.52;;;4.53;;
32393;SDS011;18853;45.426;9.206;2023-07-13T14:32:39;9.05;;;4.15;;
32393;SDS011;18853;45.426;9.206;2023-07-13T14:35:05;8.68;;;3.70;;
32393;SDS011;18853;45.426;9.206;2023-07-13T14:37:31;8.45;;;4.47;;
32393;SDS011;18853;45.426;9.206;2023-07-13T14:39:57;8.43;;;4.10;;
32393;SDS011;18853;45.426;9.206;2023-07-13T14:42:23;7.63;;;4.20;;
32393;SDS011;18853;45.426;9.206;2023-07-13T14:44:48;7.90;;;4.80;;
32393;SDS011;18853;45.426;9.206;2023-07-13T14:47:14;12.27;;;5.00;;
32393;SDS011;18853;45.426;9.206;2023-07-13T14:49:41;7.97;;;4.47;;
32393;SDS011;18853;45.426;9.206;2023-07-13T14:52:10;10.38;;;4.80;;
32393;SDS011;18853;45.426;9.206;2023-07-13T14:54:39;15.40;;;5.05;;
32393;SDS011;18853;45.426;9.206;2023-07-13T14:57:12;7.85;;;4.35;;
32393;SDS011;18853;45.426;9.206;2023-07-13T14:59:39;11.38;;;3.58;;
32393;SDS011;18853;45.426;9.206;2023-07-13T15:02:15;54.95;;;6.88;;
32393;SDS011;18853;45.426;9.206;2023-07-13T15:04:59;20.88;;;4.25;;
32393;SDS011;18853;45.426;9.206;2023-07-13T15:07:25;6.20;;;3.75;;
32393;SDS011;18853;45.426;9.206;2023-07-13T15:09:51;10.30;;;3.92;;
32393;SDS011;18853;45.426;9.206;2023-07-13T15:12:17;13.00;;;4.32;;
32393;SDS011;18853;45.426;9.206;2023-07-13T15:14:45;15.07;;;4.78;;
32393;SDS011;18853;45.426;9.206;2023-07-13T15:17:28;15.13;;;4.43;;
32393;SDS011;18853;45.426;9.206;2023-07-13T15:20:02;11.73;;;4.18;;
32393;SDS011;18853;45.426;9.206;2023-07-13T15:22:31;8.20;;;4.07;;
32393;SDS011;18853;45.426;9.206;2023-07-13T15:24:57;8.95;;;3.92;;
32393;SDS011;18853;45.426;9.206;2023-07-13T15:27:22;11.35;;;4.00;;
32393;SDS011;18853;45.426;9.206;2023-07-13T15:29:48;6.57;;;3.85;;
32393;SDS011;18853;45.426;9.206;2023-07-13T15:32:14;6.05;;;3.47;;
32393;SDS011;18853;45.426;9.206;2023-07-13T15:34:39;7.78;;;4.00;;